sensor_id;sensor_type;location;lat;lon;timestamp;pressure;altitude;pressure_sealevel;temperature;humidity
56594;BME280;42474;51.660;5.824;2022-08-07T00:02:48;102630.0;;;15.2;61.0
56594;BME280;42474;51.660;5.824;2022-08-07T00:07:48;102630.0;;;15.1;61.5
56594;BME280;42474;51.660;5.824;2022-08-07T00:12:48;102620.0;;;15.1;61.5
56594;BME280;42474;51.660;5.824;2022-08-07T00:17:48;102630.0;;;15.0;62.0
56594;BME280;42474;51.660;5.824;2022-08-07T00:22:48;102620.0;;;15.0;62.0
56594;BME280;42474;51.660;5.824;2022-08-07T00:27:48;102620.0;;;14.9;62.0
56594;BME280;42474;51.660;5.824;2022-08-07T00:32:48;102620.0;;;14.8;62.0
56594;BME280;42474;51.660;5.824;2022-08-07T00:37:48;102610.0;;;14.8;62.5
56594;BME280;42474;51.660;5.824;2022-08-07T00:42:48;102600.0;;;14.7;63.0
56594;BME280;42474;51.660;5.824;2022-08-07T00:47:48;102600.0;;;14.7;63.0
56594;BME280;42474;51.660;5.824;2022-08-07T00:52:48;102600.0;;;14.6;63.0
56594;BME280;42474;51.660;5.824;2022-08-07T00:57:48;102600.0;;;14.6;63.0
56594;BME280;42474;51.660;5.824;2022-08-07T01:02:48;102590.0;;;14.5;63.0
56594;BME280;42474;51.660;5.824;2022-08-07T01:07:48;102590.0;;;14.4;63.5
56594;BME280;42474;51.660;5.824;2022-08-07T01:12:48;102590.0;;;14.3;63.5
56594;BME280;42474;51.660;5.824;2022-08-07T01:17:48;102590.0;;;14.3;64.0
56594;BME280;42474;51.660;5.824;2022-08-07T01:22:48;102590.0;;;14.2;64.0
56594;BME280;42474;51.660;5.824;2022-08-07T01:27:48;102590.0;;;14.1;64.0
56594;BME280;42474;51.660;5.824;2022-08-07T01:32:48;102580.0;;;14.1;64.5
56594;BME280;42474;51.660;5.824;2022-08-07T01:37:48;102580.0;;;14.0;64.5
56594;BME280;42474;51.660;5.824;2022-08-07T01:42:48;102580.0;;;14.0;65.0
56594;BME280;42474;51.660;5.824;2022-08-07T01:52:50;102570.0;;;13.9;65.0
56594;BME280;42474;51.660;5.824;2022-08-07T01:57:48;102570.0;;;13.9;65.0
56594;BME280;42474;51.660;5.824;2022-08-07T02:02:52;102570.0;;;13.8;65.5
56594;BME280;42474;51.660;5.824;2022-08-07T02:07:49;102560.0;;;13.8;65.5
56594;BME280;42474;51.660;5.824;2022-08-07T02:12:48;102570.0;;;13.7;66.0
56594;BME280;42474;51.660;5.824;2022-08-07T02:17:50;102560.0;;;13.7;66.0
56594;BME280;42474;51.660;5.824;2022-08-07T02:22:49;102570.0;;;13.6;66.0
56594;BME280;42474;51.660;5.824;2022-08-07T02:27:49;102560.0;;;13.6;66.5
56594;BME280;42474;51.660;5.824;2022-08-07T02:37:48;102560.0;;;13.5;67.0
56594;BME280;42474;51.660;5.824;2022-08-07T02:42:49;102560.0;;;13.5;66.5
56594;BME280;42474;51.660;5.824;2022-08-07T02:47:48;102550.0;;;13.5;66.5
56594;BME280;42474;51.660;5.824;2022-08-07T02:52:53;102550.0;;;13.5;66.5
56594;BME280;42474;51.660;5.824;2022-08-07T02:57:55;102550.0;;;13.4;67.0
56594;BME280;42474;51.660;5.824;2022-08-07T03:02:48;102540.0;;;13.3;67.0
56594;BME280;42474;51.660;5.824;2022-08-07T03:07:49;102540.0;;;13.3;67.0
56594;BME280;42474;51.660;5.824;2022-08-07T03:12:48;102540.0;;;13.2;67.0
56594;BME280;42474;51.660;5.824;2022-08-07T03:17:48;102530.0;;;13.1;67.5
56594;BME280;42474;51.660;5.824;2022-08-07T03:22:49;102550.0;;;13.1;67.5
56594;BME280;42474;51.660;5.824;2022-08-07T03:27:48;102550.0;;;13.1;67.5
56594;BME280;42474;51.660;5.824;2022-08-07T03:32:48;102560.0;;;13.0;67.5
56594;BME280;42474;51.660;5.824;2022-08-07T03:37:52;102560.0;;;13.0;68.0
56594;BME280;42474;51.660;5.824;2022-08-07T03:42:49;102550.0;;;12.9;68.0
56594;BME280;42474;51.660;5.824;2022-08-07T03:47:48;102550.0;;;12.8;68.5
56594;BME280;42474;51.660;5.824;2022-08-07T03:52:48;102550.0;;;12.8;68.5
56594;BME280;42474;51.660;5.824;2022-08-07T03:57:49;102550.0;;;12.8;68.5
56594;BME280;42474;51.660;5.824;2022-08-07T04:02:48;102560.0;;;12.8;69.0
56594;BME280;42474;51.660;5.824;2022-08-07T04:07:49;102560.0;;;12.7;69.0
56594;BME280;42474;51.660;5.824;2022-08-07T04:12:48;102560.0;;;12.7;69.0
56594;BME280;42474;51.660;5.824;2022-08-07T04:17:48;102560.0;;;12.6;69.5
56594;BME280;42474;51.660;5.824;2022-08-07T04:22:48;102560.0;;;12.6;69.5
56594;BME280;42474;51.660;5.824;2022-08-07T04:27:48;102560.0;;;12.6;69.5
56594;BME280;42474;51.660;5.824;2022-08-07T04:32:48;102570.0;;;12.6;69.5
56594;BME280;42474;51.660;5.824;2022-08-07T04:37:48;102570.0;;;12.6;70.0
56594;BME280;42474;51.660;5.824;2022-08-07T04:42:48;102560.0;;;12.7;70.0
56594;BME280;42474;51.660;5.824;2022-08-07T04:48:09;102570.0;;;12.7;70.0
56594;BME280;42474;51.660;5.824;2022-08-07T04:52:52;102570.0;;;12.8;70.5
56594;BME280;42474;51.660;5.824;2022-08-07T04:57:53;102580.0;;;12.9;70.5
56594;BME280;42474;51.660;5.824;2022-08-07T05:02:56;102590.0;;;13.0;71.0
56594;BME280;42474;51.660;5.824;2022-08-07T05:08:00;102580.0;;;13.1;71.0
56594;BME280;42474;51.660;5.824;2022-08-07T05:12:51;102580.0;;;13.2;71.0
56594;BME280;42474;51.660;5.824;2022-08-07T05:17:50;102570.0;;;13.3;71.5
56594;BME280;42474;51.660;5.824;2022-08-07T05:22:50;102580.0;;;13.4;71.5
56594;BME280;42474;51.660;5.824;2022-08-07T05:27:49;102590.0;;;13.6;72.0
56594;BME280;42474;51.660;5.824;2022-08-07T05:32:48;102590.0;;;13.7;72.0
56594;BME280;42474;51.660;5.824;2022-08-07T05:37:48;102590.0;;;13.8;72.0
56594;BME280;42474;51.660;5.824;2022-08-07T05:42:48;102600.0;;;14.0;72.5
56594;BME280;42474;51.660;5.824;2022-08-07T05:47:48;102600.0;;;14.1;72.5
56594;BME280;42474;51.660;5.824;2022-08-07T05:52:48;102600.0;;;14.3;72.5
56594;BME280;42474;51.660;5.824;2022-08-07T05:57:49;102600.0;;;14.5;72.5
56594;BME280;42474;51.660;5.824;2022-08-07T06:02:50;102590.0;;;14.6;72.5
56594;BME280;42474;51.660;5.824;2022-08-07T06:07:48;102600.0;;;14.7;72.5
56594;BME280;42474;51.660;5.824;2022-08-07T06:12:48;102610.0;;;14.9;72.5
56594;BME280;42474;51.660;5.824;2022-08-07T06:17:48;102610.0;;;15.1;72.5
56594;BME280;42474;51.660;5.824;2022-08-07T06:22:49;102600.0;;;15.2;72.5
56594;BME280;42474;51.660;5.824;2022-08-07T06:27:48;102600.0;;;15.4;72.5
56594;BME280;42474;51.660;5.824;2022-08-07T06:32:48;102610.0;;;15.6;72.0
56594;BME280;42474;51.660;5.824;2022-08-07T06:37:48;102600.0;;;15.9;72.5
56594;BME280;42474;51.660;5.824;2022-08-07T06:42:48;102600.0;;;16.1;72.0
56594;BME280;42474;51.660;5.824;2022-08-07T06:47:49;102590.0;;;16.4;72.0
56594;BME280;42474;51.660;5.824;2022-08-07T06:52:52;102590.0;;;16.8;71.5
56594;BME280;42474;51.660;5.824;2022-08-07T06:57:50;102590.0;;;17.2;70.5
56594;BME280;42474;51.660;5.824;2022-08-07T07:02:48;102580.0;;;17.6;69.5
56594;BME280;42474;51.660;5.824;2022-08-07T07:07:48;102580.0;;;18.0;69.0
56594;BME280;42474;51.660;5.824;2022-08-07T07:12:51;102570.0;;;18.4;68.5
56594;BME280;42474;51.660;5.824;2022-08-07T07:18:09;102570.0;;;18.8;68.0
56594;BME280;42474;51.660;5.824;2022-08-07T07:22:48;102570.0;;;19.2;66.5
56594;BME280;42474;51.660;5.824;2022-08-07T07:27:50;102580.0;;;19.6;66.0
56594;BME280;42474;51.660;5.824;2022-08-07T07:32:49;102570.0;;;20.0;64.5
56594;BME280;42474;51.660;5.824;2022-08-07T07:37:50;102570.0;;;20.3;64.0
56594;BME280;42474;51.660;5.824;2022-08-07T07:42:51;102560.0;;;20.6;62.5
56594;BME280;42474;51.660;5.824;2022-08-07T07:47:50;102560.0;;;20.8;60.5
56594;BME280;42474;51.660;5.824;2022-08-07T07:52:49;102560.0;;;21.0;60.0
56594;BME280;42474;51.660;5.824;2022-08-07T07:57:49;102540.0;;;21.2;59.5
56594;BME280;42474;51.660;5.824;2022-08-07T08:02:49;102550.0;;;21.3;58.5
56594;BME280;42474;51.660;5.824;2022-08-07T08:07:48;102550.0;;;21.4;58.0
56594;BME280;42474;51.660;5.824;2022-08-07T08:12:49;102540.0;;;21.7;58.0
56594;BME280;42474;51.660;5.824;2022-08-07T08:17:48;102550.0;;;22.0;56.5
56594;BME280;42474;51.660;5.824;2022-08-07T08:22:49;102540.0;;;22.2;56.5
56594;BME280;42474;51.660;5.824;2022-08-07T08:27:51;102550.0;;;22.5;54.5
56594;BME280;42474;51.660;5.824;2022-08-07T08:32:52;102550.0;;;22.5;54.0
56594;BME280;42474;51.660;5.824;2022-08-07T08:37:50;102560.0;;;22.6;51.5
56594;BME280;42474;51.660;5.824;2022-08-07T08:42:53;102560.0;;;22.5;50.5
56594;BME280;42474;51.660;5.824;2022-08-07T08:48:22;102550.0;;;22.5;50.0
56594;BME280;42474;51.660;5.824;2022-08-07T08:52:52;102550.0;;;22.7;50.0
56594;BME280;42474;51.660;5.824;2022-08-07T08:58:09;102540.0;;;23.0;50.0
56594;BME280;42474;51.660;5.824;2022-08-07T09:02:57;102540.0;;;23.2;49.0
56594;BME280;42474;51.660;5.824;2022-08-07T09:08:31;102540.0;;;23.3;49.5
56594;BME280;42474;51.660;5.824;2022-08-07T09:13:25;102540.0;;;23.6;49.0
56594;BME280;42474;51.660;5.824;2022-08-07T09:18:20;102540.0;;;23.7;48.0
56594;BME280;42474;51.660;5.824;2022-08-07T09:23:58;102530.0;;;23.7;48.0
56594;BME280;42474;51.660;5.824;2022-08-07T09:28:18;102530.0;;;23.8;47.5
56594;BME280;42474;51.660;5.824;2022-08-07T09:33:34;102510.0;;;24.0;46.5
56594;BME280;42474;51.660;5.824;2022-08-07T09:38:05;102520.0;;;24.1;46.0
56594;BME280;42474;51.660;5.824;2022-08-07T09:43:47;102510.0;;;24.1;46.0
56594;BME280;42474;51.660;5.824;2022-08-07T09:48:57;102510.0;;;24.1;45.0
56594;BME280;42474;51.660;5.824;2022-08-07T09:53:21;102520.0;;;24.2;44.5
56594;BME280;42474;51.660;5.824;2022-08-07T10:00:10;102510.0;;;24.3;44.5
56594;BME280;42474;51.660;5.824;2022-08-07T10:06:23;102500.0;;;24.4;43.5
56594;BME280;42474;51.660;5.824;2022-08-07T10:11:58;102490.0;;;24.5;43.0
56594;BME280;42474;51.660;5.824;2022-08-07T10:18:33;102480.0;;;24.6;43.5
56594;BME280;42474;51.660;5.824;2022-08-07T10:25:15;102470.0;;;24.9;43.5
56594;BME280;42474;51.660;5.824;2022-08-07T10:31:41;102470.0;;;24.9;43.0
56594;BME280;42474;51.660;5.824;2022-08-07T10:37:58;102460.0;;;24.9;42.0
56594;BME280;42474;51.660;5.824;2022-08-07T10:42:52;102470.0;;;25.0;43.0
56594;BME280;42474;51.660;5.824;2022-08-07T10:46:45;102470.0;;;25.1;41.0
56594;BME280;42474;51.660;5.824;2022-08-07T10:50:53;102460.0;;;25.0;42.0
56594;BME280;42474;51.660;5.824;2022-08-07T10:55:22;102460.0;;;25.2;40.5
56594;BME280;42474;51.660;5.824;2022-08-07T11:00:04;102450.0;;;25.2;39.5
56594;BME280;42474;51.660;5.824;2022-08-07T11:03:47;102440.0;;;25.2;39.0
56594;BME280;42474;51.660;5.824;2022-08-07T11:08:05;102440.0;;;25.3;39.5
56594;BME280;42474;51.660;5.824;2022-08-07T11:11:38;102430.0;;;25.4;40.0
56594;BME280;42474;51.660;5.824;2022-08-07T11:15:01;102430.0;;;25.5;39.5
56594;BME280;42474;51.660;5.824;2022-08-07T11:18:13;102430.0;;;25.5;39.0
56594;BME280;42474;51.660;5.824;2022-08-07T11:22:52;102420.0;;;25.6;39.5
56594;BME280;42474;51.660;5.824;2022-08-07T11:28:11;102420.0;;;25.5;38.0
56594;BME280;42474;51.660;5.824;2022-08-07T11:32:53;102410.0;;;25.5;38.5
56594;BME280;42474;51.660;5.824;2022-08-07T11:38:24;102400.0;;;25.7;37.5
56594;BME280;42474;51.660;5.824;2022-08-07T11:42:59;102400.0;;;25.9;37.5
56594;BME280;42474;51.660;5.824;2022-08-07T11:48:48;102390.0;;;26.1;37.0
56594;BME280;42474;51.660;5.824;2022-08-07T11:55:12;102390.0;;;26.0;37.0
56594;BME280;42474;51.660;5.824;2022-08-07T12:00:12;102390.0;;;26.1;36.5
56594;BME280;42474;51.660;5.824;2022-08-07T12:05:44;102380.0;;;26.1;36.0
56594;BME280;42474;51.660;5.824;2022-08-07T12:09:33;102380.0;;;26.2;36.0
56594;BME280;42474;51.660;5.824;2022-08-07T12:12:59;102390.0;;;26.2;36.5
56594;BME280;42474;51.660;5.824;2022-08-07T12:17:58;102390.0;;;26.3;36.5
56594;BME280;42474;51.660;5.824;2022-08-07T12:23:21;102370.0;;;26.5;36.5
56594;BME280;42474;51.660;5.824;2022-08-07T12:27:53;102370.0;;;26.5;36.5
56594;BME280;42474;51.660;5.824;2022-08-07T12:33:00;102370.0;;;26.7;36.0
56594;BME280;42474;51.660;5.824;2022-08-07T12:37:49;102370.0;;;26.8;34.0
56594;BME280;42474;51.660;5.824;2022-08-07T12:42:55;102360.0;;;26.8;34.0
56594;BME280;42474;51.660;5.824;2022-08-07T12:47:56;102360.0;;;26.9;34.5
56594;BME280;42474;51.660;5.824;2022-08-07T12:52:59;102360.0;;;27.1;33.0
56594;BME280;42474;51.660;5.824;2022-08-07T12:57:49;102350.0;;;26.9;33.0
56594;BME280;42474;51.660;5.824;2022-08-07T13:03:25;102340.0;;;27.0;33.5
56594;BME280;42474;51.660;5.824;2022-08-07T13:09:21;102350.0;;;27.3;33.5
56594;BME280;42474;51.660;5.824;2022-08-07T13:14:57;102340.0;;;27.5;32.5
56594;BME280;42474;51.660;5.824;2022-08-07T13:19:42;102340.0;;;27.6;33.0
56594;BME280;42474;51.660;5.824;2022-08-07T13:22:51;102320.0;;;27.9;32.0
56594;BME280;42474;51.660;5.824;2022-08-07T13:27:57;102320.0;;;28.1;32.0
56594;BME280;42474;51.660;5.824;2022-08-07T13:32:52;102320.0;;;28.4;30.5
56594;BME280;42474;51.660;5.824;2022-08-07T13:37:58;102320.0;;;28.4;31.0
56594;BME280;42474;51.660;5.824;2022-08-07T13:42:49;102310.0;;;28.5;29.0
56594;BME280;42474;51.660;5.824;2022-08-07T13:47:50;102300.0;;;28.5;30.5
56594;BME280;42474;51.660;5.824;2022-08-07T13:52:49;102300.0;;;29.1;31.0
56594;BME280;42474;51.660;5.824;2022-08-07T13:57:51;102300.0;;;29.5;30.5
56594;BME280;42474;51.660;5.824;2022-08-07T14:02:48;102300.0;;;29.8;30.0
56594;BME280;42474;51.660;5.824;2022-08-07T14:07:50;102290.0;;;30.0;29.5
56594;BME280;42474;51.660;5.824;2022-08-07T14:12:55;102290.0;;;30.1;29.0
56594;BME280;42474;51.660;5.824;2022-08-07T14:17:52;102280.0;;;30.2;28.5
56594;BME280;42474;51.660;5.824;2022-08-07T14:22:59;102280.0;;;30.0;28.0
56594;BME280;42474;51.660;5.824;2022-08-07T14:27:50;102290.0;;;29.6;29.0
56594;BME280;42474;51.660;5.824;2022-08-07T14:32:53;102270.0;;;29.8;29.0
56594;BME280;42474;51.660;5.824;2022-08-07T14:37:50;102270.0;;;30.1;28.0
56594;BME280;42474;51.660;5.824;2022-08-07T14:42:53;102270.0;;;30.1;28.0
56594;BME280;42474;51.660;5.824;2022-08-07T14:47:49;102270.0;;;30.0;28.5
56594;BME280;42474;51.660;5.824;2022-08-07T14:52:49;102270.0;;;29.9;28.5
56594;BME280;42474;51.660;5.824;2022-08-07T14:57:50;102270.0;;;29.9;28.5
56594;BME280;42474;51.660;5.824;2022-08-07T15:02:49;102270.0;;;30.0;28.5
56594;BME280;42474;51.660;5.824;2022-08-07T15:07:49;102260.0;;;29.9;28.0
56594;BME280;42474;51.660;5.824;2022-08-07T15:12:50;102260.0;;;29.6;28.0
56594;BME280;42474;51.660;5.824;2022-08-07T15:17:52;102260.0;;;29.3;28.0
56594;BME280;42474;51.660;5.824;2022-08-07T15:22:52;102250.0;;;29.1;29.0
56594;BME280;42474;51.660;5.824;2022-08-07T15:27:51;102250.0;;;29.2;29.0
56594;BME280;42474;51.660;5.824;2022-08-07T15:32:49;102250.0;;;29.4;28.5
56594;BME280;42474;51.660;5.824;2022-08-07T15:37:53;102250.0;;;29.4;28.5
56594;BME280;42474;51.660;5.824;2022-08-07T15:43:03;102240.0;;;29.2;29.0
56594;BME280;42474;51.660;5.824;2022-08-07T15:47:51;102230.0;;;29.2;28.5
56594;BME280;42474;51.660;5.824;2022-08-07T15:52:49;102220.0;;;29.2;29.0
56594;BME280;42474;51.660;5.824;2022-08-07T15:57:51;102220.0;;;29.1;29.0
56594;BME280;42474;51.660;5.824;2022-08-07T16:02:56;102220.0;;;28.9;29.0
56594;BME280;42474;51.660;5.824;2022-08-07T16:07:53;102220.0;;;28.7;29.5
56594;BME280;42474;51.660;5.824;2022-08-07T16:13:59;102220.0;;;28.6;29.5
56594;BME280;42474;51.660;5.824;2022-08-07T16:19:29;102220.0;;;28.2;29.5
56594;BME280;42474;51.660;5.824;2022-08-07T16:24:31;102210.0;;;27.9;30.0
56594;BME280;42474;51.660;5.824;2022-08-07T16:29:15;102210.0;;;27.9;30.5
56594;BME280;42474;51.660;5.824;2022-08-07T16:32:55;102210.0;;;28.0;30.0
56594;BME280;42474;51.660;5.824;2022-08-07T16:38:45;102210.0;;;28.0;30.0
56594;BME280;42474;51.660;5.824;2022-08-07T16:45:29;102210.0;;;28.1;30.0
56594;BME280;42474;51.660;5.824;2022-08-07T16:51:11;102200.0;;;28.1;30.0
56594;BME280;42474;51.660;5.824;2022-08-07T16:56:59;102200.0;;;28.1;30.5
56594;BME280;42474;51.660;5.824;2022-08-07T17:00:58;102200.0;;;28.0;30.0
56594;BME280;42474;51.660;5.824;2022-08-07T17:05:33;102200.0;;;27.8;30.5
56594;BME280;42474;51.660;5.824;2022-08-07T17:08:03;102200.0;;;27.7;30.5
56594;BME280;42474;51.660;5.824;2022-08-07T17:13:04;102210.0;;;27.4;31.0
56594;BME280;42474;51.660;5.824;2022-08-07T17:18:19;102210.0;;;27.1;31.5
56594;BME280;42474;51.660;5.824;2022-08-07T17:22:56;102200.0;;;26.9;32.0
56594;BME280;42474;51.660;5.824;2022-08-07T17:28:12;102210.0;;;26.8;33.0
56594;BME280;42474;51.660;5.824;2022-08-07T17:32:58;102210.0;;;26.7;33.0
56594;BME280;42474;51.660;5.824;2022-08-07T17:38:00;102220.0;;;26.5;32.5
56594;BME280;42474;51.660;5.824;2022-08-07T17:43:06;102230.0;;;26.2;33.0
56594;BME280;42474;51.660;5.824;2022-08-07T17:47:56;102220.0;;;26.0;33.0
56594;BME280;42474;51.660;5.824;2022-08-07T17:53:11;102220.0;;;26.0;33.5
56594;BME280;42474;51.660;5.824;2022-08-07T17:57:51;102220.0;;;26.1;33.5
56594;BME280;42474;51.660;5.824;2022-08-07T18:02:52;102230.0;;;26.1;34.0
56594;BME280;42474;51.660;5.824;2022-08-07T18:08:17;102230.0;;;26.0;34.0
56594;BME280;42474;51.660;5.824;2022-08-07T18:13:19;102230.0;;;25.8;34.0
56594;BME280;42474;51.660;5.824;2022-08-07T18:18:08;102250.0;;;25.5;34.5
56594;BME280;42474;51.660;5.824;2022-08-07T18:22:51;102250.0;;;25.2;35.0
56594;BME280;42474;51.660;5.824;2022-08-07T18:28:20;102250.0;;;24.9;35.0
56594;BME280;42474;51.660;5.824;2022-08-07T18:33:41;102260.0;;;24.6;35.5
56594;BME280;42474;51.660;5.824;2022-08-07T18:39:06;102260.0;;;24.2;36.0
56594;BME280;42474;51.660;5.824;2022-08-07T18:43:56;102270.0;;;24.0;36.5
56594;BME280;42474;51.660;5.824;2022-08-07T18:48:20;102270.0;;;23.8;37.0
56594;BME280;42474;51.660;5.824;2022-08-07T18:53:45;102270.0;;;23.5;37.5
56594;BME280;42474;51.660;5.824;2022-08-07T18:59:02;102270.0;;;23.3;38.0
56594;BME280;42474;51.660;5.824;2022-08-07T19:03:15;102280.0;;;23.0;39.0
56594;BME280;42474;51.660;5.824;2022-08-07T19:08:05;102280.0;;;22.8;39.5
56594;BME280;42474;51.660;5.824;2022-08-07T19:13:08;102290.0;;;22.5;40.0
56594;BME280;42474;51.660;5.824;2022-08-07T19:17:53;102300.0;;;22.2;40.5
56594;BME280;42474;51.660;5.824;2022-08-07T19:23:02;102290.0;;;22.0;41.0
56594;BME280;42474;51.660;5.824;2022-08-07T19:27:49;102300.0;;;21.8;41.5
56594;BME280;42474;51.660;5.824;2022-08-07T19:32:50;102310.0;;;21.6;42.0
56594;BME280;42474;51.660;5.824;2022-08-07T19:37:55;102320.0;;;21.4;42.5
56594;BME280;42474;51.660;5.824;2022-08-07T19:42:49;102320.0;;;21.2;43.0
56594;BME280;42474;51.660;5.824;2022-08-07T19:47:51;102340.0;;;21.0;43.5
56594;BME280;42474;51.660;5.824;2022-08-07T19:52:49;102340.0;;;20.8;44.0
56594;BME280;42474;51.660;5.824;2022-08-07T19:57:53;102340.0;;;20.6;44.5
56594;BME280;42474;51.660;5.824;2022-08-07T20:02:51;102340.0;;;20.4;45.0
56594;BME280;42474;51.660;5.824;2022-08-07T20:07:48;102340.0;;;20.3;45.5
56594;BME280;42474;51.660;5.824;2022-08-07T20:12:50;102340.0;;;20.2;45.5
56594;BME280;42474;51.660;5.824;2022-08-07T20:17:50;102340.0;;;20.0;46.0
56594;BME280;42474;51.660;5.824;2022-08-07T20:22:49;102350.0;;;19.9;46.5
56594;BME280;42474;51.660;5.824;2022-08-07T20:27:49;102350.0;;;19.8;47.0
56594;BME280;42474;51.660;5.824;2022-08-07T20:32:52;102350.0;;;19.7;47.5
56594;BME280;42474;51.660;5.824;2022-08-07T20:37:52;102350.0;;;19.6;47.5
56594;BME280;42474;51.660;5.824;2022-08-07T20:42:50;102350.0;;;19.5;48.0
56594;BME280;42474;51.660;5.824;2022-08-07T20:47:49;102360.0;;;19.4;48.5
56594;BME280;42474;51.660;5.824;2022-08-07T20:52:49;102370.0;;;19.3;48.5
56594;BME280;42474;51.660;5.824;2022-08-07T20:57:51;102360.0;;;19.2;49.0
56594;BME280;42474;51.660;5.824;2022-08-07T21:02:52;102350.0;;;19.1;49.5
56594;BME280;42474;51.660;5.824;2022-08-07T21:07:53;102360.0;;;19.0;49.5
56594;BME280;42474;51.660;5.824;2022-08-07T21:12:53;102370.0;;;18.9;50.0
56594;BME280;42474;51.660;5.824;2022-08-07T21:17:51;102370.0;;;18.8;50.5
56594;BME280;42474;51.660;5.824;2022-08-07T21:22:51;102370.0;;;18.7;50.5
56594;BME280;42474;51.660;5.824;2022-08-07T21:28:20;102370.0;;;18.6;51.0
56594;BME280;42474;51.660;5.824;2022-08-07T21:33:05;102380.0;;;18.5;51.5
56594;BME280;42474;51.660;5.824;2022-08-07T21:37:55;102370.0;;;18.5;51.5
56594;BME280;42474;51.660;5.824;2022-08-07T21:43:16;102370.0;;;18.4;52.0
56594;BME280;42474;51.660;5.824;2022-08-07T21:47:56;102370.0;;;18.3;52.5
56594;BME280;42474;51.660;5.824;2022-08-07T21:53:23;102380.0;;;18.2;53.0
56594;BME280;42474;51.660;5.824;2022-08-07T21:58:17;102380.0;;;18.1;53.5
56594;BME280;42474;51.660;5.824;2022-08-07T22:03:05;102380.0;;;18.1;53.5
56594;BME280;42474;51.660;5.824;2022-08-07T22:07:50;102390.0;;;18.0;53.5
56594;BME280;42474;51.660;5.824;2022-08-07T22:12:53;102380.0;;;17.9;54.0
56594;BME280;42474;51.660;5.824;2022-08-07T22:18:00;102390.0;;;17.8;53.5
56594;BME280;42474;51.660;5.824;2022-08-07T22:22:54;102400.0;;;17.8;54.0
56594;BME280;42474;51.660;5.824;2022-08-07T22:28:02;102400.0;;;17.7;54.0
56594;BME280;42474;51.660;5.824;2022-08-07T22:32:59;102390.0;;;17.7;54.5
56594;BME280;42474;51.660;5.824;2022-08-07T22:37:58;102410.0;;;17.6;54.5
56594;BME280;42474;51.660;5.824;2022-08-07T22:42:52;102410.0;;;17.5;54.5
56594;BME280;42474;51.660;5.824;2022-08-07T22:48:32;102410.0;;;17.5;55.0
56594;BME280;42474;51.660;5.824;2022-08-07T22:55:35;102420.0;;;17.4;55.0
56594;BME280;42474;51.660;5.824;2022-08-07T23:00:45;102430.0;;;17.3;55.0
56594;BME280;42474;51.660;5.824;2022-08-07T23:07:25;102430.0;;;17.3;55.5
56594;BME280;42474;51.660;5.824;2022-08-07T23:13:22;102430.0;;;17.2;56.0
56594;BME280;42474;51.660;5.824;2022-08-07T23:19:28;102430.0;;;17.1;56.5
56594;BME280;42474;51.660;5.824;2022-08-07T23:25:40;102430.0;;;17.1;57.0
56594;BME280;42474;51.660;5.824;2022-08-07T23:30:24;102420.0;;;17.1;57.0
56594;BME280;42474;51.660;5.824;2022-08-07T23:36:01;102440.0;;;17.0;57.5
56594;BME280;42474;51.660;5.824;2022-08-07T23:42:21;102430.0;;;17.0;58.0
56594;BME280;42474;51.660;5.824;2022-08-07T23:48:47;102410.0;;;16.9;57.5
56594;BME280;42474;51.660;5.824;2022-08-07T23:53:33;102420.0;;;16.9;58.0
56594;BME280;42474;51.660;5.824;2022-08-07T23:57:48;102430.0;;;16.8;58.0
